createdAt,value
2018-09-19T00:01:05.339Z,4.80
2018-09-19T00:03:34.118Z,5.37
2018-09-19T00:06:02.863Z,5.97
2018-09-19T00:08:31.647Z,6.20
2018-09-19T00:11:00.535Z,6.30
2018-09-19T00:13:29.289Z,6.30
2018-09-19T00:15:58.058Z,5.77
2018-09-19T00:18:26.825Z,5.63
2018-09-19T00:20:55.617Z,6.17
2018-09-19T00:23:24.509Z,6.97
2018-09-19T00:25:53.355Z,6.53
2018-09-19T00:28:22.139Z,8.27
2018-09-19T00:30:50.938Z,6.47
2018-09-19T00:33:19.737Z,6.50
2018-09-19T00:35:48.497Z,6.20
2018-09-19T00:38:17.507Z,6.70
2018-09-19T00:40:46.312Z,7.07
2018-09-19T00:43:15.219Z,7.67
2018-09-19T00:45:44.236Z,7.50
2018-09-19T00:48:13.038Z,7.40
2018-09-19T00:50:41.823Z,9.60
2018-09-19T00:53:10.561Z,7.80
2018-09-19T00:55:39.427Z,10.10
2018-09-19T00:58:08.298Z,9.07
2018-09-19T01:00:37.239Z,8.33
2018-09-19T01:03:06.033Z,8.17
2018-09-19T01:05:34.792Z,9.17
2018-09-19T01:08:03.583Z,7.47
2018-09-19T01:10:32.344Z,11.10
2018-09-19T01:13:01.202Z,13.17
2018-09-19T01:15:30.455Z,9.17
2018-09-19T01:17:59.260Z,10.07
2018-09-19T01:20:27.985Z,9.53
2018-09-19T01:22:56.740Z,10.67
2018-09-19T01:25:25.603Z,12.10
2018-09-19T01:27:54.351Z,14.90
2018-09-19T01:30:23.116Z,10.67
2018-09-19T01:32:51.931Z,12.87
2018-09-19T01:35:20.807Z,10.63
2018-09-19T01:37:49.691Z,16.40
2018-09-19T01:40:18.529Z,12.13
2018-09-19T01:42:47.328Z,10.73
2018-09-19T01:45:16.437Z,11.40
2018-09-19T01:47:45.264Z,10.53
2018-09-19T01:50:14.114Z,10.30
2018-09-19T01:52:43.049Z,11.50
2018-09-19T01:55:11.887Z,12.90
2018-09-19T01:57:40.692Z,10.43
2018-09-19T02:00:09.457Z,11.17
2018-09-19T02:02:38.762Z,12.80
2018-09-19T02:05:07.563Z,12.50
2018-09-19T02:07:36.367Z,12.47
2018-09-19T02:10:05.354Z,11.90
2018-09-19T02:12:34.117Z,13.50
2018-09-19T02:15:03.325Z,11.37
2018-09-19T02:17:32.101Z,12.20
2018-09-19T02:20:00.892Z,10.20
2018-09-19T02:22:29.689Z,12.33
2018-09-19T02:24:58.476Z,11.03
2018-09-19T02:27:27.514Z,14.30
2018-09-19T02:29:56.303Z,12.57
2018-09-19T02:32:25.076Z,10.10
2018-09-19T02:34:53.775Z,10.47
2018-09-19T02:37:22.581Z,11.20
2018-09-19T02:39:51.427Z,10.60
2018-09-19T02:42:23.162Z,10.20
2018-09-19T02:44:51.929Z,9.10
2018-09-19T02:47:20.916Z,9.13
2018-09-19T02:49:49.644Z,9.27
2018-09-19T02:52:18.635Z,9.10
2018-09-19T02:54:47.392Z,9.70
2018-09-19T02:57:16.180Z,8.80
2018-09-19T02:59:44.946Z,9.27
2018-09-19T03:02:14.490Z,10.90
2018-09-19T03:07:12.418Z,9.30
2018-09-19T03:09:41.215Z,10.00
2018-09-19T03:12:10.010Z,9.33
2018-09-19T03:14:38.774Z,9.87
2018-09-19T03:17:07.886Z,12.47
2018-09-19T03:19:36.701Z,9.27
2018-09-19T03:22:10.615Z,9.30
2018-09-19T03:24:39.391Z,10.60
2018-09-19T03:27:08.289Z,9.43
2018-09-19T03:29:37.287Z,9.93
2018-09-19T03:32:06.097Z,8.07
2018-09-19T03:34:34.883Z,8.03
2018-09-19T03:37:03.656Z,8.47
2018-09-19T03:39:32.453Z,8.83
2018-09-19T03:42:01.339Z,9.37
2018-09-19T03:44:30.080Z,9.63
2018-09-19T03:46:59.615Z,14.00
2018-09-19T03:49:28.895Z,8.70
2018-09-19T03:51:57.747Z,11.33
2018-09-19T03:54:26.594Z,9.80
2018-09-19T03:56:55.396Z,10.00
2018-09-19T03:59:24.192Z,13.97
2018-09-19T04:01:53.005Z,8.07
2018-09-19T04:04:21.802Z,8.33
2018-09-19T04:06:50.922Z,8.37
2018-09-19T04:09:19.775Z,8.30
2018-09-19T04:11:48.544Z,7.10
2018-09-19T04:14:17.320Z,7.90
2018-09-19T04:16:46.123Z,7.40
2018-09-19T04:19:15.263Z,7.83
2018-09-19T04:21:48.936Z,6.93
2018-09-19T04:24:17.723Z,10.37
2018-09-19T04:26:46.522Z,8.10
2018-09-19T04:29:15.705Z,7.60
2018-09-19T04:31:44.867Z,8.63
2018-09-19T04:34:14.638Z,9.20
2018-09-19T04:36:43.530Z,11.67
2018-09-19T04:39:13.395Z,15.50
2018-09-19T04:41:42.149Z,8.50
2018-09-19T04:44:11.272Z,9.90
2018-09-19T04:46:40.599Z,9.53
2018-09-19T04:49:09.689Z,13.67
2018-09-19T04:51:39.921Z,13.27
2018-09-19T04:54:08.829Z,11.00
2018-09-19T04:56:38.156Z,10.60
2018-09-19T04:59:07.096Z,12.00
2018-09-19T05:01:35.871Z,10.87
2018-09-19T05:04:04.590Z,11.00
2018-09-19T05:06:33.376Z,12.07
2018-09-19T05:09:02.221Z,14.97
2018-09-19T05:11:31.168Z,14.27
2018-09-19T05:13:59.930Z,12.53
2018-09-19T05:16:28.686Z,12.60
2018-09-19T05:18:57.542Z,10.20
2018-09-19T05:21:26.312Z,11.83
2018-09-19T05:23:55.208Z,12.43
2018-09-19T05:26:24.140Z,8.47
2018-09-19T05:28:52.852Z,11.00
2018-09-19T05:31:22.311Z,9.93
2018-09-19T05:33:51.094Z,9.50
2018-09-19T05:36:19.912Z,9.30
2018-09-19T05:38:48.804Z,10.67
2018-09-19T05:41:17.599Z,8.23
2018-09-19T05:43:46.364Z,8.80
2018-09-19T05:46:15.167Z,10.33
2018-09-19T05:48:43.979Z,7.83
2018-09-19T05:51:13.157Z,7.67
2018-09-19T05:53:43.482Z,11.03
2018-09-19T05:56:12.505Z,8.87
2018-09-19T05:58:41.446Z,7.83
2018-09-19T06:01:10.185Z,9.53
2018-09-19T06:03:39.060Z,7.63
2018-09-19T06:06:07.811Z,7.87
2018-09-19T06:08:36.570Z,7.80
2018-09-19T06:11:05.444Z,7.73
2018-09-19T06:13:34.432Z,7.83
2018-09-19T06:16:03.485Z,6.87
2018-09-19T06:18:32.308Z,6.80
2018-09-19T06:21:01.103Z,9.83
2018-09-19T06:23:29.870Z,7.30
2018-09-19T06:25:58.644Z,6.93
2018-09-19T06:28:27.578Z,9.10
2018-09-19T06:30:56.358Z,8.00
2018-09-19T06:33:25.187Z,6.90
2018-09-19T06:35:53.919Z,6.47
2018-09-19T06:38:22.779Z,6.90
2018-09-19T06:40:51.788Z,7.13
2018-09-19T06:43:20.490Z,7.90
2018-09-19T06:45:49.356Z,10.97
2018-09-19T06:48:18.178Z,8.90
2018-09-19T06:50:47.010Z,7.07
2018-09-19T06:53:15.923Z,6.73
2018-09-19T06:55:45.040Z,6.77
2018-09-19T06:58:13.821Z,7.63
2018-09-19T07:00:42.612Z,7.07
2018-09-19T07:03:11.398Z,9.00
2018-09-19T07:05:40.290Z,5.87
2018-09-19T07:08:09.055Z,7.30
2018-09-19T07:10:37.946Z,6.43
2018-09-19T07:13:06.742Z,8.33
2018-09-19T07:15:35.540Z,6.73
2018-09-19T07:18:04.521Z,5.97
2018-09-19T07:20:33.648Z,8.10
2018-09-19T07:23:02.408Z,7.10
2018-09-19T07:25:31.207Z,7.43
2018-09-19T07:28:00.011Z,6.83
2018-09-19T07:30:29.044Z,9.03
2018-09-19T07:32:58.108Z,7.57
2018-09-19T07:35:27.423Z,8.27
2018-09-19T07:37:56.208Z,6.80
2018-09-19T07:40:25.062Z,6.90
2018-09-19T07:42:53.795Z,8.37
2018-09-19T07:45:22.757Z,9.57
2018-09-19T07:47:51.513Z,8.23
2018-09-19T07:50:20.310Z,7.50
2018-09-19T07:52:49.106Z,7.37
2018-09-19T07:55:17.956Z,7.60
2018-09-19T07:57:46.869Z,7.87
2018-09-19T08:00:16.066Z,6.90
2018-09-19T08:02:45.294Z,7.77
2018-09-19T08:05:14.395Z,6.90
2018-09-19T08:07:43.216Z,8.83
2018-09-19T08:10:12.060Z,7.17
2018-09-19T08:12:41.003Z,7.17
2018-09-19T08:15:09.897Z,7.10
2018-09-19T08:17:38.684Z,7.67
2018-09-19T08:20:07.446Z,7.23
2018-09-19T08:22:36.270Z,7.27
2018-09-19T08:25:05.135Z,7.50
2018-09-19T08:27:33.966Z,10.43
2018-09-19T08:30:02.759Z,7.13
2018-09-19T08:32:31.528Z,6.97
2018-09-19T08:35:00.341Z,8.10
2018-09-19T08:37:29.281Z,7.07
2018-09-19T08:39:58.103Z,9.17
2018-09-19T08:42:26.911Z,7.27
2018-09-19T08:44:55.775Z,6.67
2018-09-19T08:47:24.563Z,7.50
2018-09-19T08:49:53.662Z,6.93
2018-09-19T08:52:22.486Z,6.73
2018-09-19T08:54:51.411Z,7.10
2018-09-19T08:57:20.220Z,8.23
2018-09-19T08:59:49.199Z,7.27
2018-09-19T09:02:18.279Z,7.37
2018-09-19T09:04:47.438Z,7.57
2018-09-19T09:07:16.241Z,7.20
2018-09-19T09:09:45.236Z,7.57
2018-09-19T09:12:14.133Z,8.03
2018-09-19T09:14:42.940Z,8.20
2018-09-19T09:17:11.800Z,7.47
2018-09-19T09:19:40.622Z,7.73
2018-09-19T09:22:09.411Z,7.57
2018-09-19T09:24:38.181Z,7.83
2018-09-19T09:27:07.155Z,8.00
2018-09-19T09:29:36.044Z,7.80
2018-09-19T09:32:05.165Z,7.47
2018-09-19T09:34:33.977Z,7.80
2018-09-19T09:37:02.852Z,8.07
2018-09-19T09:39:31.673Z,7.70
2018-09-19T09:42:00.769Z,7.70
2018-09-19T09:44:29.862Z,7.80
2018-09-19T09:46:58.630Z,8.07
2018-09-19T09:49:27.473Z,8.70
2018-09-19T09:51:56.232Z,7.43
2018-09-19T09:54:25.049Z,8.23
2018-09-19T09:56:54.112Z,8.43
2018-09-19T09:59:22.864Z,7.83
2018-09-19T10:01:51.875Z,7.70
2018-09-19T10:04:20.736Z,9.00
2018-09-19T10:06:49.542Z,7.80
2018-09-19T10:09:18.411Z,7.77
2018-09-19T10:11:47.400Z,7.30
2018-09-19T10:14:16.320Z,7.83
2018-09-19T10:16:45.108Z,10.57
2018-09-19T10:19:13.925Z,7.87
2018-09-19T10:21:42.835Z,8.57
2018-09-19T10:24:11.813Z,8.30
2018-09-19T10:26:40.601Z,7.60
2018-09-19T10:29:09.366Z,7.47
2018-09-19T10:31:38.225Z,6.93
2018-09-19T10:34:07.093Z,6.73
2018-09-19T10:36:36.043Z,7.30
2018-09-19T10:39:06.002Z,7.10
2018-09-19T10:41:34.785Z,7.30
2018-09-19T10:44:03.603Z,7.67
2018-09-19T10:46:32.438Z,7.17
2018-09-19T10:49:01.293Z,7.90
2018-09-19T10:51:30.165Z,7.30
2018-09-19T10:53:58.991Z,7.13
2018-09-19T10:56:27.852Z,8.43
2018-09-19T10:58:56.686Z,6.60
2018-09-19T11:01:25.566Z,7.17
2018-09-19T11:03:54.579Z,7.00
2018-09-19T11:06:23.358Z,7.10
2018-09-19T11:08:52.182Z,7.57
2018-09-19T11:11:20.903Z,7.60
2018-09-19T11:13:49.836Z,7.03
2018-09-19T11:16:18.787Z,9.60
2018-09-19T11:18:47.627Z,7.43
2018-09-19T11:21:16.500Z,7.00
2018-09-19T11:23:45.354Z,6.83
2018-09-19T11:26:14.519Z,6.97
2018-09-19T11:28:43.337Z,7.03
2018-09-19T11:31:12.319Z,7.77
2018-09-19T11:33:41.314Z,6.67
2018-09-19T11:36:10.138Z,8.73
2018-09-19T11:38:39.153Z,6.53
2018-09-19T11:41:08.246Z,7.43
2018-09-19T11:43:37.127Z,7.40
2018-09-19T11:46:05.964Z,7.93
2018-09-19T11:48:34.831Z,7.00
2018-09-19T11:51:03.743Z,7.10
2018-09-19T11:53:32.636Z,6.50
2018-09-19T11:56:01.452Z,5.97
2018-09-19T11:58:30.678Z,8.63
2018-09-19T12:00:59.731Z,6.40
2018-09-19T12:03:29.175Z,7.40
2018-09-19T12:05:58.406Z,8.10
2018-09-19T12:08:27.292Z,6.70
2018-09-19T12:10:56.116Z,7.90
2018-09-19T12:13:24.972Z,7.03
2018-09-19T12:15:53.785Z,7.60
2018-09-19T12:18:22.686Z,7.03
2018-09-19T12:20:51.516Z,10.70
2018-09-19T12:23:21.744Z,7.30
2018-09-19T12:25:51.295Z,6.77
2018-09-19T12:28:20.900Z,7.47
2018-09-19T12:30:49.961Z,7.97
2018-09-19T12:33:18.915Z,7.33
2018-09-19T12:35:47.716Z,7.47
2018-09-19T12:38:16.594Z,7.20
2018-09-19T12:40:45.365Z,6.03
2018-09-19T12:43:14.282Z,6.50
2018-09-19T12:45:43.626Z,7.20
2018-09-19T12:48:12.954Z,6.73
2018-09-19T12:50:41.790Z,7.20
2018-09-19T12:53:10.540Z,7.77
2018-09-19T12:55:39.389Z,6.40
2018-09-19T12:58:08.376Z,7.53
2018-09-19T13:00:37.281Z,6.40
2018-09-19T13:03:06.212Z,6.50
2018-09-19T13:05:35.378Z,6.40
2018-09-19T13:08:04.344Z,6.30
2018-09-19T13:10:33.167Z,6.57
2018-09-19T13:13:01.992Z,7.13
2018-09-19T13:15:30.822Z,6.67
2018-09-19T13:17:59.801Z,6.37
2018-09-19T13:20:28.604Z,7.00
2018-09-19T13:22:57.419Z,6.70
2018-09-19T13:25:26.194Z,6.30
2018-09-19T13:27:54.989Z,6.70
2018-09-19T13:30:24.424Z,6.20
2018-09-19T13:32:53.205Z,6.60
2018-09-19T13:35:21.991Z,6.77
2018-09-19T13:37:51.755Z,6.60
2018-09-19T13:40:20.549Z,7.47
2018-09-19T13:42:49.851Z,7.97
2018-09-19T13:45:18.651Z,6.63
2018-09-19T13:47:47.418Z,6.47
2018-09-19T13:50:42.425Z,6.03
2018-09-19T13:53:11.298Z,5.97
2018-09-19T13:55:40.208Z,6.03
2018-09-19T13:58:09.071Z,6.60
2018-09-19T14:00:38.016Z,5.60
2018-09-19T14:03:06.841Z,6.17
2018-09-19T14:05:35.688Z,6.40
2018-09-19T14:08:05.171Z,5.40
2018-09-19T14:10:34.020Z,6.80
2018-09-19T14:13:02.808Z,5.87
2018-09-19T14:15:31.581Z,5.43
2018-09-19T14:18:00.374Z,6.40
2018-09-19T14:20:32.914Z,6.00
2018-09-19T14:23:02.148Z,5.83
2018-09-19T14:25:30.960Z,6.20
2018-09-19T14:27:59.779Z,6.10
2018-09-19T14:30:28.721Z,5.40
2018-09-19T14:32:58.056Z,5.13
2018-09-19T14:35:27.007Z,6.30
2018-09-19T14:37:55.884Z,5.63
2018-09-19T14:40:24.741Z,7.47
2018-09-19T14:42:53.611Z,5.90
2018-09-19T14:45:22.478Z,7.23
2018-09-19T14:47:51.658Z,6.00
2018-09-19T14:50:20.781Z,5.60
2018-09-19T14:52:49.610Z,5.93
2018-09-19T14:55:18.456Z,5.93
2018-09-19T14:57:47.298Z,5.40
2018-09-19T15:00:16.121Z,6.07
2018-09-19T15:02:45.177Z,6.30
2018-09-19T15:05:14.057Z,5.67
2018-09-19T15:07:42.943Z,7.37
2018-09-19T15:10:11.833Z,7.00
2018-09-19T15:12:40.691Z,5.90
2018-09-19T15:15:09.861Z,6.23
2018-09-19T15:17:38.821Z,6.67
2018-09-19T15:20:08.187Z,8.10
2018-09-19T15:22:36.995Z,6.13
2018-09-19T15:25:05.749Z,6.63
2018-09-19T15:27:34.752Z,5.97
2018-09-19T15:30:03.649Z,6.43
2018-09-19T15:32:32.454Z,6.50
2018-09-19T15:35:01.276Z,5.90
2018-09-19T15:37:30.080Z,5.90
2018-09-19T15:39:59.058Z,6.20
2018-09-19T15:42:27.886Z,5.33
2018-09-19T15:44:56.615Z,5.40
2018-09-19T15:47:25.418Z,5.83
2018-09-19T15:49:54.263Z,5.80
2018-09-19T15:52:23.189Z,5.57
2018-09-19T15:54:51.970Z,5.73
2018-09-19T15:57:20.780Z,5.10
2018-09-19T15:59:49.589Z,5.37
2018-09-19T16:02:18.490Z,5.37
2018-09-19T16:04:47.477Z,7.73
2018-09-19T16:07:16.351Z,5.43
2018-09-19T16:09:45.437Z,6.57
2018-09-19T16:12:14.410Z,5.63
2018-09-19T16:14:43.130Z,5.60
2018-09-19T16:17:12.067Z,5.10
2018-09-19T16:19:40.867Z,5.37
2018-09-19T16:22:10.496Z,5.10
2018-09-19T16:24:39.531Z,5.90
2018-09-19T16:27:08.588Z,5.50
2018-09-19T16:29:37.506Z,5.67
2018-09-19T16:32:06.495Z,7.80
2018-09-19T16:34:35.233Z,5.60
2018-09-19T16:37:04.096Z,5.93
2018-09-19T16:39:32.898Z,5.87
2018-09-19T16:42:01.781Z,8.50
2018-09-19T16:44:30.651Z,6.10
2018-09-19T16:46:59.467Z,5.40
2018-09-19T16:49:28.254Z,5.77
2018-09-19T16:51:57.032Z,12.33
2018-09-19T16:54:25.957Z,4.90
2018-09-19T16:56:54.855Z,7.70
2018-09-19T16:59:23.632Z,8.83
2018-09-19T17:01:52.641Z,5.03
2018-09-19T17:04:21.416Z,13.00
2018-09-19T17:06:50.407Z,8.43
2018-09-19T17:09:19.213Z,9.03
2018-09-19T17:11:47.959Z,5.63
2018-09-19T17:14:17.176Z,6.13
2018-09-19T17:16:45.963Z,5.60
2018-09-19T17:19:14.830Z,5.23
2018-09-19T17:21:43.641Z,5.73
2018-09-19T17:24:12.662Z,5.60
2018-09-19T17:26:41.525Z,8.60
2018-09-19T17:29:10.431Z,6.67
2018-09-19T17:31:39.312Z,7.43
2018-09-19T17:34:08.088Z,7.33
2018-09-19T17:36:36.911Z,7.57
2018-09-19T17:39:08.959Z,9.33
2018-09-19T17:41:37.774Z,5.90
2018-09-19T17:44:06.785Z,6.03
2018-09-19T17:46:35.796Z,7.80
2018-09-19T17:49:04.619Z,5.47
2018-09-19T17:51:33.951Z,5.80
2018-09-19T17:54:02.939Z,6.10
2018-09-19T17:56:31.785Z,9.53
2018-09-19T17:59:00.889Z,8.07
2018-09-19T18:01:29.672Z,9.13
2018-09-19T18:03:58.460Z,6.27
2018-09-19T18:06:27.329Z,5.50
2018-09-19T18:08:56.171Z,6.93
2018-09-19T18:11:24.918Z,5.93
2018-09-19T18:13:53.745Z,5.57
2018-09-19T18:16:23.057Z,6.47
2018-09-19T18:18:52.306Z,6.37
2018-09-19T18:21:21.190Z,7.13
2018-09-19T18:23:50.317Z,7.20
2018-09-19T18:26:19.190Z,17.07
2018-09-19T18:28:48.002Z,6.07
2018-09-19T18:31:17.363Z,6.57
2018-09-19T18:33:46.243Z,6.20
2018-09-19T18:36:15.003Z,7.40
2018-09-19T18:38:44.543Z,8.80
2018-09-19T18:41:13.649Z,7.67
2018-09-19T18:43:42.866Z,6.23
2018-09-19T18:46:11.817Z,10.90
2018-09-19T18:48:40.601Z,8.33
2018-09-19T18:51:09.398Z,10.17
2018-09-19T18:53:38.262Z,7.80
2018-09-19T18:56:07.271Z,9.40
2018-09-19T18:58:36.078Z,7.47
2018-09-19T19:01:05.447Z,7.07
2018-09-19T19:03:34.263Z,8.20
2018-09-19T19:06:03.575Z,9.07
2018-09-19T19:08:32.684Z,11.20
2018-09-19T19:11:01.594Z,9.17
2018-09-19T19:13:30.583Z,18.87
2018-09-19T19:15:59.394Z,10.50
2018-09-19T19:18:28.299Z,8.80
2018-09-19T19:20:57.513Z,7.80
2018-09-19T19:23:26.240Z,11.87
2018-09-19T19:25:55.075Z,9.47
2018-09-19T19:28:23.865Z,9.40
2018-09-19T19:30:52.659Z,9.13
2018-09-19T19:33:21.596Z,10.43
2018-09-19T19:35:50.456Z,9.13
2018-09-19T19:38:19.210Z,7.30
2018-09-19T19:40:48.024Z,11.43
2018-09-19T19:43:16.902Z,7.93
2018-09-19T19:45:45.782Z,7.90
2018-09-19T19:48:14.539Z,14.13
2018-09-19T19:50:43.277Z,7.20
2018-09-19T19:53:12.069Z,9.37
2018-09-19T19:55:41.168Z,7.47
2018-09-19T19:58:10.080Z,6.93
2018-09-19T20:00:39.232Z,12.67
2018-09-19T20:03:07.982Z,7.43
2018-09-19T20:05:37.340Z,8.83
2018-09-19T20:08:06.681Z,7.10
2018-09-19T20:10:35.758Z,8.10
2018-09-19T20:13:04.710Z,8.37
2018-09-19T20:15:33.743Z,8.57
2018-09-19T20:18:02.531Z,7.80
2018-09-19T20:20:31.519Z,9.50
2018-09-19T20:23:00.405Z,8.70
2018-09-19T20:25:29.366Z,8.00
2018-09-19T20:27:58.371Z,9.00
2018-09-19T20:30:27.203Z,10.40
2018-09-19T20:32:55.993Z,7.73
2018-09-19T20:35:24.839Z,8.27
2018-09-19T20:37:53.658Z,7.83
2018-09-19T20:40:23.049Z,11.60
2018-09-19T20:42:51.827Z,8.57
2018-09-19T20:45:20.707Z,12.00
2018-09-19T20:47:49.473Z,7.43
2018-09-19T20:50:18.313Z,11.47
2018-09-19T20:52:47.478Z,8.63
2018-09-19T20:55:16.302Z,8.97
2018-09-19T20:57:45.112Z,12.60
2018-09-19T21:00:13.931Z,8.80
2018-09-19T21:02:42.756Z,8.30
2018-09-19T21:05:11.734Z,10.93
2018-09-19T21:07:40.494Z,12.50
2018-09-19T21:10:09.559Z,9.90
2018-09-19T21:12:38.289Z,14.27
2018-09-19T21:15:07.153Z,8.50
2018-09-19T21:17:36.111Z,8.73
2018-09-19T21:20:05.075Z,10.67
2018-09-19T21:22:34.303Z,10.80
2018-09-19T21:25:03.125Z,9.60
2018-09-19T21:27:32.000Z,7.90
2018-09-19T21:30:01.330Z,8.17
2018-09-19T21:32:30.122Z,11.40
2018-09-19T21:34:58.897Z,14.60
2018-09-19T21:37:27.669Z,9.17
2018-09-19T21:39:56.462Z,9.97
2018-09-19T21:42:26.150Z,8.90
2018-09-19T21:44:54.938Z,9.40
2018-09-19T21:47:23.672Z,9.23
2018-09-19T21:49:53.003Z,10.07
2018-09-19T21:52:22.002Z,10.90
2018-09-19T21:54:50.872Z,9.30
2018-09-19T21:57:19.764Z,12.00
2018-09-19T21:59:48.550Z,14.07
2018-09-19T22:02:18.318Z,11.83
2018-09-19T22:04:48.440Z,13.03
2018-09-19T22:07:17.642Z,10.03
2018-09-19T22:09:46.492Z,21.07
2018-09-19T22:12:15.278Z,12.57
2018-09-19T22:14:44.111Z,11.40
2018-09-19T22:17:12.979Z,11.57
2018-09-19T22:19:41.945Z,14.50
2018-09-19T22:22:10.757Z,11.77
2018-09-19T22:24:39.747Z,11.50
2018-09-19T22:27:08.548Z,12.30
2018-09-19T22:29:37.367Z,11.60
2018-09-19T22:32:06.290Z,10.53
2018-09-19T22:34:35.335Z,12.40
2018-09-19T22:37:04.510Z,13.73
2018-09-19T22:39:33.304Z,14.43
2018-09-19T22:42:02.070Z,16.00
2018-09-19T22:44:30.985Z,11.73
2018-09-19T22:46:59.784Z,11.30
2018-09-19T22:49:28.589Z,9.87
2018-09-19T22:51:57.388Z,13.40
2018-09-19T22:54:26.209Z,10.20
2018-09-19T22:56:55.461Z,13.90
2018-09-19T22:59:24.226Z,15.57
2018-09-19T23:01:53.118Z,13.10
2018-09-19T23:04:21.952Z,12.77
2018-09-19T23:06:50.790Z,12.70
2018-09-19T23:09:19.774Z,12.60
2018-09-19T23:11:48.571Z,13.30
2018-09-19T23:14:17.376Z,16.33
2018-09-19T23:16:46.491Z,11.70
2018-09-19T23:19:15.208Z,12.60
2018-09-19T23:21:44.686Z,15.20
2018-09-19T23:24:13.486Z,13.13
2018-09-19T23:26:42.743Z,12.20
2018-09-19T23:29:11.602Z,17.10
2018-09-19T23:31:40.352Z,14.40
2018-09-19T23:34:09.817Z,13.23
2018-09-19T23:36:38.663Z,15.63
2018-09-19T23:39:08.911Z,16.07
2018-09-19T23:41:37.696Z,17.67
2018-09-19T23:44:06.731Z,15.40
2018-09-19T23:46:35.578Z,15.30
2018-09-19T23:49:04.323Z,13.70
2018-09-19T23:51:33.029Z,17.93
2018-09-19T23:54:01.767Z,19.77
2018-09-19T23:56:30.504Z,14.63
2018-09-19T23:58:59.416Z,13.77
